sensor_id;sensor_type;location;lat;lon;timestamp;P1;durP1;ratioP1;P2;durP2;ratioP2
56429;SDS011;42332;52.136;20.666;2022-07-18T00:02:16;6.05;;;2.60;;
56429;SDS011;42332;52.136;20.666;2022-07-18T00:04:41;9.05;;;2.30;;
56429;SDS011;42332;52.136;20.666;2022-07-18T00:07:07;6.40;;;2.40;;
56429;SDS011;42332;52.136;20.666;2022-07-18T00:09:35;9.00;;;2.45;;
56429;SDS011;42332;52.136;20.666;2022-07-18T00:12:01;7.60;;;2.35;;
56429;SDS011;42332;52.136;20.666;2022-07-18T00:14:26;5.47;;;2.35;;
56429;SDS011;42332;52.136;20.666;2022-07-18T00:16:51;9.45;;;2.60;;
56429;SDS011;42332;52.136;20.666;2022-07-18T00:19:17;7.78;;;2.55;;
56429;SDS011;42332;52.136;20.666;2022-07-18T00:21:42;10.32;;;2.83;;
56429;SDS011;42332;52.136;20.666;2022-07-18T00:24:08;8.80;;;2.80;;
56429;SDS011;42332;52.136;20.666;2022-07-18T00:26:33;8.27;;;2.97;;
56429;SDS011;42332;52.136;20.666;2022-07-18T00:28:58;6.75;;;2.28;;
56429;SDS011;42332;52.136;20.666;2022-07-18T00:31:24;8.65;;;3.30;;
56429;SDS011;42332;52.136;20.666;2022-07-18T00:33:49;7.00;;;2.65;;
56429;SDS011;42332;52.136;20.666;2022-07-18T00:36:15;5.57;;;2.53;;
56429;SDS011;42332;52.136;20.666;2022-07-18T00:38:40;6.45;;;2.72;;
56429;SDS011;42332;52.136;20.666;2022-07-18T00:41:05;6.70;;;2.67;;
56429;SDS011;42332;52.136;20.666;2022-07-18T00:43:32;7.57;;;2.50;;
56429;SDS011;42332;52.136;20.666;2022-07-18T00:45:57;8.02;;;2.65;;
56429;SDS011;42332;52.136;20.666;2022-07-18T00:48:23;5.05;;;2.60;;
56429;SDS011;42332;52.136;20.666;2022-07-18T00:50:49;9.15;;;3.22;;
56429;SDS011;42332;52.136;20.666;2022-07-18T00:53:14;6.15;;;2.60;;
56429;SDS011;42332;52.136;20.666;2022-07-18T00:55:43;7.35;;;2.53;;
56429;SDS011;42332;52.136;20.666;2022-07-18T00:58:10;6.93;;;2.97;;
56429;SDS011;42332;52.136;20.666;2022-07-18T01:00:36;7.90;;;2.90;;
56429;SDS011;42332;52.136;20.666;2022-07-18T01:03:20;6.85;;;2.95;;
56429;SDS011;42332;52.136;20.666;2022-07-18T01:05:46;11.85;;;2.72;;
56429;SDS011;42332;52.136;20.666;2022-07-18T01:08:11;11.27;;;3.17;;
56429;SDS011;42332;52.136;20.666;2022-07-18T01:10:37;5.95;;;2.78;;
56429;SDS011;42332;52.136;20.666;2022-07-18T01:13:02;9.45;;;2.90;;
56429;SDS011;42332;52.136;20.666;2022-07-18T01:15:28;9.23;;;2.45;;
56429;SDS011;42332;52.136;20.666;2022-07-18T01:17:53;7.25;;;2.88;;
56429;SDS011;42332;52.136;20.666;2022-07-18T01:20:19;9.85;;;3.00;;
56429;SDS011;42332;52.136;20.666;2022-07-18T01:22:44;16.30;;;2.78;;
56429;SDS011;42332;52.136;20.666;2022-07-18T01:25:10;6.10;;;2.80;;
56429;SDS011;42332;52.136;20.666;2022-07-18T01:27:35;11.90;;;3.08;;
56429;SDS011;42332;52.136;20.666;2022-07-18T01:30:01;12.23;;;3.03;;
56429;SDS011;42332;52.136;20.666;2022-07-18T01:32:27;7.18;;;2.30;;
56429;SDS011;42332;52.136;20.666;2022-07-18T01:34:53;11.35;;;2.88;;
56429;SDS011;42332;52.136;20.666;2022-07-18T01:37:18;5.53;;;2.72;;
56429;SDS011;42332;52.136;20.666;2022-07-18T01:39:44;10.38;;;3.20;;
56429;SDS011;42332;52.136;20.666;2022-07-18T01:42:10;7.70;;;2.78;;
56429;SDS011;42332;52.136;20.666;2022-07-18T01:44:37;6.72;;;2.97;;
56429;SDS011;42332;52.136;20.666;2022-07-18T01:47:03;7.80;;;2.67;;
56429;SDS011;42332;52.136;20.666;2022-07-18T01:49:30;7.65;;;2.95;;
56429;SDS011;42332;52.136;20.666;2022-07-18T01:51:57;11.10;;;2.65;;
56429;SDS011;42332;52.136;20.666;2022-07-18T01:54:23;5.78;;;2.47;;
56429;SDS011;42332;52.136;20.666;2022-07-18T01:56:50;6.53;;;3.08;;
56429;SDS011;42332;52.136;20.666;2022-07-18T01:59:16;9.02;;;3.40;;
56429;SDS011;42332;52.136;20.666;2022-07-18T02:01:41;7.15;;;2.88;;
56429;SDS011;42332;52.136;20.666;2022-07-18T02:04:07;7.28;;;2.90;;
56429;SDS011;42332;52.136;20.666;2022-07-18T02:06:32;8.00;;;3.17;;
56429;SDS011;42332;52.136;20.666;2022-07-18T02:08:58;10.57;;;3.13;;
56429;SDS011;42332;52.136;20.666;2022-07-18T02:11:23;10.60;;;3.17;;
56429;SDS011;42332;52.136;20.666;2022-07-18T02:13:48;9.00;;;3.15;;
56429;SDS011;42332;52.136;20.666;2022-07-18T02:16:14;9.48;;;3.28;;
56429;SDS011;42332;52.136;20.666;2022-07-18T02:18:39;9.63;;;2.83;;
56429;SDS011;42332;52.136;20.666;2022-07-18T02:21:05;7.28;;;3.35;;
56429;SDS011;42332;52.136;20.666;2022-07-18T02:23:32;9.57;;;3.53;;
56429;SDS011;42332;52.136;20.666;2022-07-18T02:25:57;12.57;;;3.72;;
56429;SDS011;42332;52.136;20.666;2022-07-18T02:28:23;11.43;;;3.72;;
56429;SDS011;42332;52.136;20.666;2022-07-18T02:30:48;5.20;;;2.60;;
56429;SDS011;42332;52.136;20.666;2022-07-18T02:33:14;8.00;;;2.85;;
56429;SDS011;42332;52.136;20.666;2022-07-18T02:35:40;4.78;;;1.98;;
56429;SDS011;42332;52.136;20.666;2022-07-18T02:38:06;5.57;;;2.67;;
56429;SDS011;42332;52.136;20.666;2022-07-18T02:40:32;7.22;;;2.92;;
56429;SDS011;42332;52.136;20.666;2022-07-18T02:42:57;10.55;;;3.50;;
56429;SDS011;42332;52.136;20.666;2022-07-18T02:45:23;9.27;;;3.10;;
56429;SDS011;42332;52.136;20.666;2022-07-18T02:47:48;7.70;;;3.05;;
56429;SDS011;42332;52.136;20.666;2022-07-18T02:50:14;10.18;;;3.70;;
56429;SDS011;42332;52.136;20.666;2022-07-18T02:52:40;5.95;;;3.10;;
56429;SDS011;42332;52.136;20.666;2022-07-18T02:55:06;12.25;;;3.40;;
56429;SDS011;42332;52.136;20.666;2022-07-18T02:57:32;6.38;;;2.95;;
56429;SDS011;42332;52.136;20.666;2022-07-18T02:59:58;8.52;;;3.33;;
56429;SDS011;42332;52.136;20.666;2022-07-18T03:02:23;10.55;;;3.38;;
56429;SDS011;42332;52.136;20.666;2022-07-18T03:04:49;6.18;;;2.83;;
56429;SDS011;42332;52.136;20.666;2022-07-18T03:07:15;7.68;;;3.00;;
56429;SDS011;42332;52.136;20.666;2022-07-18T03:09:40;6.72;;;3.13;;
56429;SDS011;42332;52.136;20.666;2022-07-18T03:12:05;6.65;;;2.95;;
56429;SDS011;42332;52.136;20.666;2022-07-18T03:14:31;8.55;;;3.13;;
56429;SDS011;42332;52.136;20.666;2022-07-18T03:16:57;10.73;;;3.60;;
56429;SDS011;42332;52.136;20.666;2022-07-18T03:19:22;6.40;;;3.30;;
56429;SDS011;42332;52.136;20.666;2022-07-18T03:21:47;10.77;;;3.47;;
56429;SDS011;42332;52.136;20.666;2022-07-18T03:24:13;10.00;;;3.30;;
56429;SDS011;42332;52.136;20.666;2022-07-18T03:26:42;9.38;;;2.72;;
56429;SDS011;42332;52.136;20.666;2022-07-18T03:29:08;7.20;;;3.20;;
56429;SDS011;42332;52.136;20.666;2022-07-18T03:31:34;8.02;;;3.30;;
56429;SDS011;42332;52.136;20.666;2022-07-18T03:33:59;8.20;;;3.40;;
56429;SDS011;42332;52.136;20.666;2022-07-18T03:36:24;13.30;;;4.05;;
56429;SDS011;42332;52.136;20.666;2022-07-18T03:38:50;11.10;;;3.45;;
56429;SDS011;42332;52.136;20.666;2022-07-18T03:41:15;9.55;;;3.75;;
56429;SDS011;42332;52.136;20.666;2022-07-18T03:43:41;11.27;;;4.22;;
56429;SDS011;42332;52.136;20.666;2022-07-18T03:46:06;9.05;;;3.45;;
56429;SDS011;42332;52.136;20.666;2022-07-18T03:48:33;9.15;;;3.28;;
56429;SDS011;42332;52.136;20.666;2022-07-18T03:50:59;16.00;;;3.63;;
56429;SDS011;42332;52.136;20.666;2022-07-18T03:53:24;11.93;;;3.58;;
56429;SDS011;42332;52.136;20.666;2022-07-18T03:55:50;9.10;;;3.15;;
56429;SDS011;42332;52.136;20.666;2022-07-18T03:58:16;8.65;;;3.83;;
56429;SDS011;42332;52.136;20.666;2022-07-18T04:00:41;9.18;;;3.85;;
56429;SDS011;42332;52.136;20.666;2022-07-18T04:03:06;8.60;;;3.10;;
56429;SDS011;42332;52.136;20.666;2022-07-18T04:05:32;8.38;;;3.40;;
56429;SDS011;42332;52.136;20.666;2022-07-18T04:07:57;18.45;;;3.58;;
56429;SDS011;42332;52.136;20.666;2022-07-18T04:10:23;8.85;;;3.70;;
56429;SDS011;42332;52.136;20.666;2022-07-18T04:12:49;7.90;;;3.88;;
56429;SDS011;42332;52.136;20.666;2022-07-18T04:15:19;12.98;;;3.63;;
56429;SDS011;42332;52.136;20.666;2022-07-18T04:17:47;15.27;;;4.18;;
56429;SDS011;42332;52.136;20.666;2022-07-18T04:20:13;6.85;;;3.10;;
56429;SDS011;42332;52.136;20.666;2022-07-18T04:22:45;11.23;;;3.20;;
56429;SDS011;42332;52.136;20.666;2022-07-18T04:25:22;8.85;;;3.85;;
56429;SDS011;42332;52.136;20.666;2022-07-18T04:27:49;8.02;;;3.70;;
56429;SDS011;42332;52.136;20.666;2022-07-18T04:30:16;8.35;;;3.33;;
56429;SDS011;42332;52.136;20.666;2022-07-18T04:32:43;11.68;;;3.83;;
56429;SDS011;42332;52.136;20.666;2022-07-18T04:35:09;9.15;;;3.58;;
56429;SDS011;42332;52.136;20.666;2022-07-18T04:37:35;11.15;;;3.90;;
56429;SDS011;42332;52.136;20.666;2022-07-18T04:40:00;10.50;;;3.50;;
56429;SDS011;42332;52.136;20.666;2022-07-18T04:42:26;10.43;;;4.22;;
56429;SDS011;42332;52.136;20.666;2022-07-18T04:44:52;8.20;;;3.70;;
56429;SDS011;42332;52.136;20.666;2022-07-18T04:47:17;9.68;;;3.40;;
56429;SDS011;42332;52.136;20.666;2022-07-18T04:49:43;9.98;;;3.17;;
56429;SDS011;42332;52.136;20.666;2022-07-18T04:52:08;10.32;;;3.22;;
56429;SDS011;42332;52.136;20.666;2022-07-18T04:54:34;8.43;;;3.35;;
56429;SDS011;42332;52.136;20.666;2022-07-18T04:56:59;12.68;;;3.25;;
56429;SDS011;42332;52.136;20.666;2022-07-18T04:59:25;9.10;;;3.63;;
56429;SDS011;42332;52.136;20.666;2022-07-18T05:01:50;12.00;;;3.90;;
56429;SDS011;42332;52.136;20.666;2022-07-18T05:04:15;13.98;;;3.78;;
56429;SDS011;42332;52.136;20.666;2022-07-18T05:06:41;8.45;;;3.30;;
56429;SDS011;42332;52.136;20.666;2022-07-18T05:09:06;8.10;;;3.38;;
56429;SDS011;42332;52.136;20.666;2022-07-18T05:11:31;8.48;;;3.70;;
56429;SDS011;42332;52.136;20.666;2022-07-18T05:13:57;8.13;;;4.63;;
56429;SDS011;42332;52.136;20.666;2022-07-18T05:16:22;10.35;;;3.22;;
56429;SDS011;42332;52.136;20.666;2022-07-18T05:18:48;7.93;;;3.03;;
56429;SDS011;42332;52.136;20.666;2022-07-18T05:21:13;6.35;;;2.75;;
56429;SDS011;42332;52.136;20.666;2022-07-18T05:23:38;7.80;;;3.38;;
56429;SDS011;42332;52.136;20.666;2022-07-18T05:26:04;13.85;;;4.15;;
56429;SDS011;42332;52.136;20.666;2022-07-18T05:28:30;7.68;;;3.10;;
56429;SDS011;42332;52.136;20.666;2022-07-18T05:30:55;9.57;;;3.45;;
56429;SDS011;42332;52.136;20.666;2022-07-18T05:33:21;6.63;;;2.97;;
56429;SDS011;42332;52.136;20.666;2022-07-18T05:35:46;11.20;;;3.50;;
56429;SDS011;42332;52.136;20.666;2022-07-18T05:38:12;10.02;;;2.95;;
56429;SDS011;42332;52.136;20.666;2022-07-18T05:40:37;7.45;;;3.13;;
56429;SDS011;42332;52.136;20.666;2022-07-18T05:43:03;10.05;;;3.10;;
56429;SDS011;42332;52.136;20.666;2022-07-18T05:45:28;9.13;;;2.97;;
56429;SDS011;42332;52.136;20.666;2022-07-18T05:47:54;7.70;;;3.03;;
56429;SDS011;42332;52.136;20.666;2022-07-18T05:50:20;6.18;;;2.40;;
56429;SDS011;42332;52.136;20.666;2022-07-18T05:52:46;6.78;;;2.97;;
56429;SDS011;42332;52.136;20.666;2022-07-18T05:55:11;6.68;;;3.00;;
56429;SDS011;42332;52.136;20.666;2022-07-18T05:57:37;8.00;;;2.53;;
56429;SDS011;42332;52.136;20.666;2022-07-18T06:00:03;8.95;;;2.88;;
56429;SDS011;42332;52.136;20.666;2022-07-18T06:02:30;7.97;;;2.83;;
56429;SDS011;42332;52.136;20.666;2022-07-18T06:04:56;6.00;;;2.38;;
56429;SDS011;42332;52.136;20.666;2022-07-18T06:07:21;10.13;;;3.13;;
56429;SDS011;42332;52.136;20.666;2022-07-18T06:09:47;8.57;;;2.85;;
56429;SDS011;42332;52.136;20.666;2022-07-18T06:12:12;7.93;;;2.67;;
56429;SDS011;42332;52.136;20.666;2022-07-18T06:14:37;7.72;;;2.38;;
56429;SDS011;42332;52.136;20.666;2022-07-18T06:17:03;9.52;;;2.58;;
56429;SDS011;42332;52.136;20.666;2022-07-18T06:19:28;7.50;;;2.40;;
56429;SDS011;42332;52.136;20.666;2022-07-18T06:21:54;9.38;;;2.75;;
56429;SDS011;42332;52.136;20.666;2022-07-18T06:24:19;6.85;;;2.65;;
56429;SDS011;42332;52.136;20.666;2022-07-18T06:26:44;6.65;;;3.22;;
56429;SDS011;42332;52.136;20.666;2022-07-18T06:29:10;8.43;;;4.72;;
56429;SDS011;42332;52.136;20.666;2022-07-18T06:31:35;8.15;;;5.38;;
56429;SDS011;42332;52.136;20.666;2022-07-18T06:34:01;10.90;;;4.63;;
56429;SDS011;42332;52.136;20.666;2022-07-18T06:36:27;9.63;;;4.38;;
56429;SDS011;42332;52.136;20.666;2022-07-18T06:38:52;6.78;;;4.07;;
56429;SDS011;42332;52.136;20.666;2022-07-18T06:41:18;12.43;;;3.55;;
56429;SDS011;42332;52.136;20.666;2022-07-18T06:43:44;7.57;;;2.55;;
56429;SDS011;42332;52.136;20.666;2022-07-18T06:46:10;7.15;;;2.70;;
56429;SDS011;42332;52.136;20.666;2022-07-18T06:48:35;7.07;;;2.58;;
56429;SDS011;42332;52.136;20.666;2022-07-18T06:51:01;6.68;;;2.40;;
56429;SDS011;42332;52.136;20.666;2022-07-18T06:53:28;5.38;;;2.22;;
56429;SDS011;42332;52.136;20.666;2022-07-18T06:55:54;9.82;;;2.53;;
56429;SDS011;42332;52.136;20.666;2022-07-18T06:58:19;9.25;;;2.55;;
56429;SDS011;42332;52.136;20.666;2022-07-18T07:00:45;6.30;;;2.42;;
56429;SDS011;42332;52.136;20.666;2022-07-18T07:03:10;5.05;;;2.10;;
56429;SDS011;42332;52.136;20.666;2022-07-18T07:05:35;5.28;;;2.10;;
56429;SDS011;42332;52.136;20.666;2022-07-18T07:08:01;6.60;;;1.98;;
56429;SDS011;42332;52.136;20.666;2022-07-18T07:10:26;5.85;;;1.80;;
56429;SDS011;42332;52.136;20.666;2022-07-18T07:12:52;7.25;;;2.08;;
56429;SDS011;42332;52.136;20.666;2022-07-18T07:15:18;11.45;;;1.80;;
56429;SDS011;42332;52.136;20.666;2022-07-18T07:17:45;6.25;;;1.88;;
56429;SDS011;42332;52.136;20.666;2022-07-18T07:20:11;7.93;;;1.85;;
56429;SDS011;42332;52.136;20.666;2022-07-18T07:25:34;7.13;;;2.00;;
56429;SDS011;42332;52.136;20.666;2022-07-18T07:28:01;8.63;;;1.70;;
56429;SDS011;42332;52.136;20.666;2022-07-18T07:30:26;5.80;;;1.33;;
56429;SDS011;42332;52.136;20.666;2022-07-18T07:32:52;4.97;;;1.65;;
56429;SDS011;42332;52.136;20.666;2022-07-18T07:35:19;4.13;;;1.50;;
56429;SDS011;42332;52.136;20.666;2022-07-18T07:37:46;6.28;;;2.00;;
56429;SDS011;42332;52.136;20.666;2022-07-18T07:40:14;6.13;;;1.92;;
56429;SDS011;42332;52.136;20.666;2022-07-18T07:42:40;4.57;;;1.70;;
56429;SDS011;42332;52.136;20.666;2022-07-18T07:45:06;8.00;;;2.13;;
56429;SDS011;42332;52.136;20.666;2022-07-18T07:47:32;4.43;;;1.42;;
56429;SDS011;42332;52.136;20.666;2022-07-18T07:49:58;8.25;;;2.42;;
56429;SDS011;42332;52.136;20.666;2022-07-18T07:52:24;6.63;;;1.60;;
56429;SDS011;42332;52.136;20.666;2022-07-18T07:54:50;9.13;;;1.95;;
56429;SDS011;42332;52.136;20.666;2022-07-18T07:57:16;4.15;;;1.13;;
56429;SDS011;42332;52.136;20.666;2022-07-18T07:59:41;14.80;;;1.90;;
56429;SDS011;42332;52.136;20.666;2022-07-18T08:02:06;4.55;;;1.90;;
56429;SDS011;42332;52.136;20.666;2022-07-18T08:04:32;6.28;;;1.95;;
56429;SDS011;42332;52.136;20.666;2022-07-18T08:06:57;3.95;;;1.42;;
56429;SDS011;42332;52.136;20.666;2022-07-18T08:09:23;9.45;;;2.45;;
56429;SDS011;42332;52.136;20.666;2022-07-18T08:11:48;6.32;;;1.75;;
56429;SDS011;42332;52.136;20.666;2022-07-18T08:14:13;5.40;;;1.30;;
56429;SDS011;42332;52.136;20.666;2022-07-18T08:16:39;6.78;;;2.03;;
56429;SDS011;42332;52.136;20.666;2022-07-18T08:19:04;5.13;;;1.25;;
56429;SDS011;42332;52.136;20.666;2022-07-18T08:21:30;4.80;;;1.50;;
56429;SDS011;42332;52.136;20.666;2022-07-18T08:23:55;5.90;;;1.65;;
56429;SDS011;42332;52.136;20.666;2022-07-18T08:26:20;5.45;;;1.52;;
56429;SDS011;42332;52.136;20.666;2022-07-18T08:28:46;6.47;;;1.83;;
56429;SDS011;42332;52.136;20.666;2022-07-18T08:31:12;4.82;;;1.63;;
56429;SDS011;42332;52.136;20.666;2022-07-18T08:33:37;7.93;;;1.85;;
56429;SDS011;42332;52.136;20.666;2022-07-18T08:36:03;7.30;;;1.75;;
56429;SDS011;42332;52.136;20.666;2022-07-18T08:38:28;8.55;;;1.80;;
56429;SDS011;42332;52.136;20.666;2022-07-18T08:40:54;6.78;;;1.60;;
56429;SDS011;42332;52.136;20.666;2022-07-18T08:43:19;5.18;;;1.52;;
56429;SDS011;42332;52.136;20.666;2022-07-18T08:45:46;6.35;;;2.05;;
56429;SDS011;42332;52.136;20.666;2022-07-18T08:48:15;5.45;;;1.40;;
56429;SDS011;42332;52.136;20.666;2022-07-18T08:50:42;6.53;;;2.08;;
56429;SDS011;42332;52.136;20.666;2022-07-18T08:53:09;4.45;;;1.70;;
56429;SDS011;42332;52.136;20.666;2022-07-18T08:55:35;7.53;;;2.05;;
56429;SDS011;42332;52.136;20.666;2022-07-18T08:58:01;10.40;;;1.60;;
56429;SDS011;42332;52.136;20.666;2022-07-18T09:00:26;5.55;;;1.75;;
56429;SDS011;42332;52.136;20.666;2022-07-18T09:02:58;7.05;;;1.70;;
56429;SDS011;42332;52.136;20.666;2022-07-18T09:05:24;7.97;;;2.10;;
56429;SDS011;42332;52.136;20.666;2022-07-18T09:07:50;4.95;;;1.45;;
56429;SDS011;42332;52.136;20.666;2022-07-18T09:10:16;5.50;;;1.55;;
56429;SDS011;42332;52.136;20.666;2022-07-18T09:12:54;5.50;;;1.60;;
56429;SDS011;42332;52.136;20.666;2022-07-18T09:15:21;5.85;;;1.83;;
56429;SDS011;42332;52.136;20.666;2022-07-18T09:17:49;5.15;;;1.40;;
56429;SDS011;42332;52.136;20.666;2022-07-18T09:20:14;4.88;;;1.40;;
56429;SDS011;42332;52.136;20.666;2022-07-18T09:22:44;4.10;;;1.23;;
56429;SDS011;42332;52.136;20.666;2022-07-18T09:32:41;6.93;;;1.60;;
56429;SDS011;42332;52.136;20.666;2022-07-18T09:35:11;7.53;;;1.88;;
56429;SDS011;42332;52.136;20.666;2022-07-18T09:37:39;7.95;;;1.92;;
56429;SDS011;42332;52.136;20.666;2022-07-18T09:40:15;6.25;;;1.65;;
56429;SDS011;42332;52.136;20.666;2022-07-18T09:42:42;6.88;;;1.80;;
56429;SDS011;42332;52.136;20.666;2022-07-18T09:45:08;6.18;;;1.80;;
56429;SDS011;42332;52.136;20.666;2022-07-18T09:47:53;8.07;;;1.50;;
56429;SDS011;42332;52.136;20.666;2022-07-18T09:50:27;6.43;;;1.83;;
56429;SDS011;42332;52.136;20.666;2022-07-18T09:53:12;5.03;;;1.70;;
56429;SDS011;42332;52.136;20.666;2022-07-18T09:55:43;6.15;;;1.70;;
56429;SDS011;42332;52.136;20.666;2022-07-18T09:58:19;5.85;;;1.40;;
56429;SDS011;42332;52.136;20.666;2022-07-18T10:00:49;5.35;;;1.42;;
56429;SDS011;42332;52.136;20.666;2022-07-18T10:03:15;3.53;;;1.38;;
56429;SDS011;42332;52.136;20.666;2022-07-18T10:05:42;3.92;;;1.42;;
56429;SDS011;42332;52.136;20.666;2022-07-18T10:08:10;4.50;;;1.30;;
56429;SDS011;42332;52.136;20.666;2022-07-18T10:10:37;6.88;;;1.50;;
56429;SDS011;42332;52.136;20.666;2022-07-18T10:13:04;4.82;;;1.70;;
56429;SDS011;42332;52.136;20.666;2022-07-18T10:15:32;4.22;;;1.45;;
56429;SDS011;42332;52.136;20.666;2022-07-18T10:17:59;5.57;;;1.90;;
56429;SDS011;42332;52.136;20.666;2022-07-18T10:20:37;5.95;;;1.17;;
56429;SDS011;42332;52.136;20.666;2022-07-18T10:23:07;5.85;;;1.33;;
56429;SDS011;42332;52.136;20.666;2022-07-18T10:29:08;8.07;;;1.80;;
56429;SDS011;42332;52.136;20.666;2022-07-18T10:33:53;5.63;;;1.90;;
56429;SDS011;42332;52.136;20.666;2022-07-18T10:39:11;4.22;;;1.38;;
56429;SDS011;42332;52.136;20.666;2022-07-18T10:47:09;7.18;;;1.95;;
56429;SDS011;42332;52.136;20.666;2022-07-18T10:57:41;7.57;;;1.48;;
56429;SDS011;42332;52.136;20.666;2022-07-18T11:04:59;4.60;;;1.30;;
56429;SDS011;42332;52.136;20.666;2022-07-18T11:07:25;3.80;;;1.23;;
56429;SDS011;42332;52.136;20.666;2022-07-18T11:09:50;4.32;;;1.50;;
56429;SDS011;42332;52.136;20.666;2022-07-18T11:14:57;4.43;;;1.40;;
56429;SDS011;42332;52.136;20.666;2022-07-18T11:23:04;4.05;;;1.30;;
56429;SDS011;42332;52.136;20.666;2022-07-18T11:25:44;3.75;;;1.50;;
56429;SDS011;42332;52.136;20.666;2022-07-18T11:28:11;7.13;;;1.63;;
56429;SDS011;42332;52.136;20.666;2022-07-18T11:30:37;3.05;;;1.52;;
56429;SDS011;42332;52.136;20.666;2022-07-18T11:33:03;5.20;;;1.50;;
56429;SDS011;42332;52.136;20.666;2022-07-18T11:35:29;5.43;;;1.33;;
56429;SDS011;42332;52.136;20.666;2022-07-18T11:37:55;3.45;;;1.30;;
56429;SDS011;42332;52.136;20.666;2022-07-18T11:40:20;7.50;;;1.70;;
56429;SDS011;42332;52.136;20.666;2022-07-18T11:42:46;6.05;;;1.50;;
56429;SDS011;42332;52.136;20.666;2022-07-18T11:45:13;6.10;;;1.60;;
56429;SDS011;42332;52.136;20.666;2022-07-18T11:47:45;5.65;;;1.75;;
56429;SDS011;42332;52.136;20.666;2022-07-18T11:50:12;4.38;;;1.20;;
56429;SDS011;42332;52.136;20.666;2022-07-18T11:52:38;4.78;;;1.50;;
56429;SDS011;42332;52.136;20.666;2022-07-18T11:55:04;6.90;;;1.40;;
56429;SDS011;42332;52.136;20.666;2022-07-18T11:57:30;5.20;;;1.33;;
56429;SDS011;42332;52.136;20.666;2022-07-18T11:59:57;3.80;;;1.27;;
56429;SDS011;42332;52.136;20.666;2022-07-18T12:05:33;4.13;;;1.50;;
56429;SDS011;42332;52.136;20.666;2022-07-18T12:07:59;6.22;;;1.35;;
56429;SDS011;42332;52.136;20.666;2022-07-18T12:10:25;6.30;;;1.88;;
56429;SDS011;42332;52.136;20.666;2022-07-18T12:12:51;3.85;;;1.50;;
56429;SDS011;42332;52.136;20.666;2022-07-18T12:15:16;4.57;;;1.25;;
56429;SDS011;42332;52.136;20.666;2022-07-18T12:17:43;6.63;;;1.33;;
56429;SDS011;42332;52.136;20.666;2022-07-18T12:20:16;4.80;;;1.25;;
56429;SDS011;42332;52.136;20.666;2022-07-18T12:25:42;8.35;;;1.75;;
56429;SDS011;42332;52.136;20.666;2022-07-18T12:28:12;4.43;;;1.45;;
56429;SDS011;42332;52.136;20.666;2022-07-18T12:30:41;5.63;;;1.52;;
56429;SDS011;42332;52.136;20.666;2022-07-18T12:33:07;5.25;;;1.23;;
56429;SDS011;42332;52.136;20.666;2022-07-18T12:35:34;3.05;;;1.20;;
56429;SDS011;42332;52.136;20.666;2022-07-18T12:40:49;91.25;;;4.78;;
56429;SDS011;42332;52.136;20.666;2022-07-18T12:46:02;6.55;;;1.55;;
56429;SDS011;42332;52.136;20.666;2022-07-18T12:48:32;4.07;;;1.48;;
56429;SDS011;42332;52.136;20.666;2022-07-18T12:51:05;4.97;;;1.33;;
56429;SDS011;42332;52.136;20.666;2022-07-18T12:53:35;4.75;;;1.10;;
56429;SDS011;42332;52.136;20.666;2022-07-18T12:56:02;10.48;;;1.60;;
56429;SDS011;42332;52.136;20.666;2022-07-18T12:58:28;7.18;;;1.67;;
56429;SDS011;42332;52.136;20.666;2022-07-18T13:00:53;3.42;;;1.20;;
56429;SDS011;42332;52.136;20.666;2022-07-18T13:03:21;3.20;;;1.30;;
56429;SDS011;42332;52.136;20.666;2022-07-18T13:05:46;7.70;;;1.20;;
56429;SDS011;42332;52.136;20.666;2022-07-18T13:08:12;3.78;;;1.27;;
56429;SDS011;42332;52.136;20.666;2022-07-18T13:10:37;3.65;;;1.20;;
56429;SDS011;42332;52.136;20.666;2022-07-18T13:13:04;4.30;;;1.30;;
56429;SDS011;42332;52.136;20.666;2022-07-18T13:15:31;6.72;;;1.33;;
56429;SDS011;42332;52.136;20.666;2022-07-18T13:17:56;3.22;;;1.15;;
56429;SDS011;42332;52.136;20.666;2022-07-18T13:20:22;4.93;;;1.45;;
56429;SDS011;42332;52.136;20.666;2022-07-18T13:22:47;6.78;;;1.50;;
56429;SDS011;42332;52.136;20.666;2022-07-18T13:25:13;4.43;;;1.55;;
56429;SDS011;42332;52.136;20.666;2022-07-18T13:27:38;9.38;;;1.27;;
56429;SDS011;42332;52.136;20.666;2022-07-18T13:30:04;2.78;;;1.17;;
56429;SDS011;42332;52.136;20.666;2022-07-18T13:32:31;2.33;;;0.95;;
56429;SDS011;42332;52.136;20.666;2022-07-18T13:34:57;3.38;;;1.27;;
56429;SDS011;42332;52.136;20.666;2022-07-18T13:37:22;5.18;;;1.35;;
56429;SDS011;42332;52.136;20.666;2022-07-18T13:39:47;4.65;;;1.38;;
56429;SDS011;42332;52.136;20.666;2022-07-18T13:42:13;4.70;;;1.40;;
56429;SDS011;42332;52.136;20.666;2022-07-18T13:44:39;5.80;;;1.30;;
56429;SDS011;42332;52.136;20.666;2022-07-18T13:47:04;6.20;;;1.30;;
56429;SDS011;42332;52.136;20.666;2022-07-18T13:49:29;5.03;;;1.42;;
56429;SDS011;42332;52.136;20.666;2022-07-18T13:51:55;4.68;;;1.20;;
56429;SDS011;42332;52.136;20.666;2022-07-18T13:54:21;3.95;;;1.20;;
56429;SDS011;42332;52.136;20.666;2022-07-18T13:56:46;3.45;;;1.40;;
56429;SDS011;42332;52.136;20.666;2022-07-18T13:59:12;4.75;;;1.17;;
56429;SDS011;42332;52.136;20.666;2022-07-18T14:01:37;6.70;;;1.27;;
56429;SDS011;42332;52.136;20.666;2022-07-18T14:04:02;5.28;;;1.33;;
56429;SDS011;42332;52.136;20.666;2022-07-18T14:06:28;7.95;;;1.50;;
56429;SDS011;42332;52.136;20.666;2022-07-18T14:08:53;5.22;;;1.67;;
56429;SDS011;42332;52.136;20.666;2022-07-18T14:11:19;3.88;;;1.30;;
56429;SDS011;42332;52.136;20.666;2022-07-18T14:13:44;4.13;;;1.45;;
56429;SDS011;42332;52.136;20.666;2022-07-18T14:16:11;7.10;;;1.40;;
56429;SDS011;42332;52.136;20.666;2022-07-18T14:18:37;7.45;;;1.67;;
56429;SDS011;42332;52.136;20.666;2022-07-18T14:21:02;4.57;;;1.85;;
56429;SDS011;42332;52.136;20.666;2022-07-18T14:23:28;4.07;;;1.25;;
56429;SDS011;42332;52.136;20.666;2022-07-18T14:25:53;7.22;;;1.30;;
56429;SDS011;42332;52.136;20.666;2022-07-18T14:28:19;4.65;;;1.20;;
56429;SDS011;42332;52.136;20.666;2022-07-18T14:30:44;4.55;;;1.40;;
56429;SDS011;42332;52.136;20.666;2022-07-18T14:33:10;4.00;;;1.30;;
56429;SDS011;42332;52.136;20.666;2022-07-18T14:35:35;4.38;;;1.60;;
56429;SDS011;42332;52.136;20.666;2022-07-18T14:38:00;5.22;;;1.48;;
56429;SDS011;42332;52.136;20.666;2022-07-18T14:40:26;7.93;;;1.60;;
56429;SDS011;42332;52.136;20.666;2022-07-18T14:42:51;7.93;;;1.77;;
56429;SDS011;42332;52.136;20.666;2022-07-18T14:45:17;5.22;;;1.23;;
56429;SDS011;42332;52.136;20.666;2022-07-18T14:47:42;9.50;;;1.63;;
56429;SDS011;42332;52.136;20.666;2022-07-18T14:50:08;5.05;;;1.38;;
56429;SDS011;42332;52.136;20.666;2022-07-18T14:52:35;10.25;;;1.60;;
56429;SDS011;42332;52.136;20.666;2022-07-18T14:55:01;4.78;;;1.50;;
56429;SDS011;42332;52.136;20.666;2022-07-18T14:57:26;8.95;;;1.80;;
56429;SDS011;42332;52.136;20.666;2022-07-18T14:59:52;3.70;;;1.33;;
56429;SDS011;42332;52.136;20.666;2022-07-18T15:02:17;3.95;;;1.10;;
56429;SDS011;42332;52.136;20.666;2022-07-18T15:04:43;9.93;;;1.63;;
56429;SDS011;42332;52.136;20.666;2022-07-18T15:07:08;5.22;;;1.17;;
56429;SDS011;42332;52.136;20.666;2022-07-18T15:09:34;3.92;;;1.50;;
56429;SDS011;42332;52.136;20.666;2022-07-18T15:12:00;3.85;;;1.30;;
56429;SDS011;42332;52.136;20.666;2022-07-18T15:14:25;3.45;;;1.30;;
56429;SDS011;42332;52.136;20.666;2022-07-18T15:16:52;8.93;;;1.40;;
56429;SDS011;42332;52.136;20.666;2022-07-18T15:19:17;5.10;;;1.42;;
56429;SDS011;42332;52.136;20.666;2022-07-18T15:21:43;3.35;;;1.27;;
56429;SDS011;42332;52.136;20.666;2022-07-18T15:24:08;4.28;;;1.15;;
56429;SDS011;42332;52.136;20.666;2022-07-18T15:26:34;5.57;;;1.40;;